sensor_id;sensor_type;location;lat;lon;timestamp;P1;durP1;ratioP1;P2;durP2;ratioP2
5085;SDS011;4715;51.660;7.082;2023-07-20T00:01:54;2.90;;;2.70;;
5085;SDS011;4715;51.660;7.082;2023-07-20T00:04:16;3.40;;;2.53;;
5085;SDS011;4715;51.660;7.082;2023-07-20T00:06:38;3.17;;;2.87;;
5085;SDS011;4715;51.660;7.082;2023-07-20T00:09:01;4.03;;;2.97;;
5085;SDS011;4715;51.660;7.082;2023-07-20T00:11:25;4.90;;;2.80;;
5085;SDS011;4715;51.660;7.082;2023-07-20T00:13:48;3.47;;;2.70;;
5085;SDS011;4715;51.660;7.082;2023-07-20T00:16:09;3.50;;;3.20;;
5085;SDS011;4715;51.660;7.082;2023-07-20T00:18:31;3.13;;;2.87;;
5085;SDS011;4715;51.660;7.082;2023-07-20T00:20:53;4.60;;;2.60;;
5085;SDS011;4715;51.660;7.082;2023-07-20T00:23:15;3.30;;;2.60;;
5085;SDS011;4715;51.660;7.082;2023-07-20T00:25:38;3.33;;;3.03;;
5085;SDS011;4715;51.660;7.082;2023-07-20T00:28:01;4.17;;;2.40;;
5085;SDS011;4715;51.660;7.082;2023-07-20T00:30:30;3.03;;;2.83;;
5085;SDS011;4715;51.660;7.082;2023-07-20T00:32:52;2.50;;;2.40;;
5085;SDS011;4715;51.660;7.082;2023-07-20T00:35:15;2.70;;;2.50;;
5085;SDS011;4715;51.660;7.082;2023-07-20T00:37:41;3.87;;;2.83;;
5085;SDS011;4715;51.660;7.082;2023-07-20T00:40:03;2.50;;;2.33;;
5085;SDS011;4715;51.660;7.082;2023-07-20T00:42:29;2.93;;;2.60;;
5085;SDS011;4715;51.660;7.082;2023-07-20T00:44:51;2.90;;;2.70;;
5085;SDS011;4715;51.660;7.082;2023-07-20T00:47:13;3.53;;;3.03;;
5085;SDS011;4715;51.660;7.082;2023-07-20T00:49:38;2.30;;;2.20;;
5085;SDS011;4715;51.660;7.082;2023-07-20T00:52:01;2.60;;;2.40;;
5085;SDS011;4715;51.660;7.082;2023-07-20T00:54:29;2.50;;;2.40;;
5085;SDS011;4715;51.660;7.082;2023-07-20T00:56:53;2.60;;;2.50;;
5085;SDS011;4715;51.660;7.082;2023-07-20T00:59:19;2.53;;;2.43;;
5085;SDS011;4715;51.660;7.082;2023-07-20T01:01:43;2.63;;;2.53;;
5085;SDS011;4715;51.660;7.082;2023-07-20T01:04:05;2.30;;;2.20;;
5085;SDS011;4715;51.660;7.082;2023-07-20T01:06:31;2.97;;;2.77;;
5085;SDS011;4715;51.660;7.082;2023-07-20T01:09:01;2.90;;;2.30;;
5085;SDS011;4715;51.660;7.082;2023-07-20T01:11:33;2.13;;;2.03;;
5085;SDS011;4715;51.660;7.082;2023-07-20T01:14:00;2.70;;;2.60;;
5085;SDS011;4715;51.660;7.082;2023-07-20T01:16:27;3.40;;;2.10;;
5085;SDS011;4715;51.660;7.082;2023-07-20T01:18:49;3.00;;;2.80;;
5085;SDS011;4715;51.660;7.082;2023-07-20T01:21:13;2.97;;;2.70;;
5085;SDS011;4715;51.660;7.082;2023-07-20T01:23:51;3.10;;;2.77;;
5085;SDS011;4715;51.660;7.082;2023-07-20T01:26:58;2.80;;;2.57;;
5085;SDS011;4715;51.660;7.082;2023-07-20T01:29:54;3.07;;;2.77;;
5085;SDS011;4715;51.660;7.082;2023-07-20T01:32:38;3.00;;;2.13;;
5085;SDS011;4715;51.660;7.082;2023-07-20T01:35:05;3.30;;;2.30;;
5085;SDS011;4715;51.660;7.082;2023-07-20T01:37:28;2.10;;;2.00;;
5085;SDS011;4715;51.660;7.082;2023-07-20T01:39:56;3.23;;;2.57;;
5085;SDS011;4715;51.660;7.082;2023-07-20T01:42:20;5.00;;;3.00;;
5085;SDS011;4715;51.660;7.082;2023-07-20T01:44:44;3.50;;;3.20;;
5085;SDS011;4715;51.660;7.082;2023-07-20T01:47:06;2.87;;;2.67;;
5085;SDS011;4715;51.660;7.082;2023-07-20T01:49:30;2.40;;;2.20;;
5085;SDS011;4715;51.660;7.082;2023-07-20T01:51:52;2.30;;;2.20;;
5085;SDS011;4715;51.660;7.082;2023-07-20T01:54:14;2.40;;;2.30;;
5085;SDS011;4715;51.660;7.082;2023-07-20T01:56:36;2.17;;;2.07;;
5085;SDS011;4715;51.660;7.082;2023-07-20T01:58:57;2.37;;;2.20;;
5085;SDS011;4715;51.660;7.082;2023-07-20T02:01:19;2.00;;;1.90;;
5085;SDS011;4715;51.660;7.082;2023-07-20T02:03:42;1.90;;;1.80;;
5085;SDS011;4715;51.660;7.082;2023-07-20T02:06:05;3.60;;;3.30;;
5085;SDS011;4715;51.660;7.082;2023-07-20T02:08:27;2.40;;;2.20;;
5085;SDS011;4715;51.660;7.082;2023-07-20T02:10:48;2.27;;;2.17;;
5085;SDS011;4715;51.660;7.082;2023-07-20T02:13:11;2.43;;;2.33;;
5085;SDS011;4715;51.660;7.082;2023-07-20T02:15:32;2.40;;;2.30;;
5085;SDS011;4715;51.660;7.082;2023-07-20T02:17:54;3.20;;;2.23;;
5085;SDS011;4715;51.660;7.082;2023-07-20T02:20:16;2.17;;;2.07;;
5085;SDS011;4715;51.660;7.082;2023-07-20T02:22:40;1.80;;;1.70;;
5085;SDS011;4715;51.660;7.082;2023-07-20T02:25:02;1.70;;;1.60;;
5085;SDS011;4715;51.660;7.082;2023-07-20T02:27:25;2.00;;;1.90;;
5085;SDS011;4715;51.660;7.082;2023-07-20T02:29:46;1.90;;;1.80;;
5085;SDS011;4715;51.660;7.082;2023-07-20T02:32:08;2.20;;;2.10;;
5085;SDS011;4715;51.660;7.082;2023-07-20T02:34:30;1.93;;;1.70;;
5085;SDS011;4715;51.660;7.082;2023-07-20T02:36:53;2.80;;;2.57;;
5085;SDS011;4715;51.660;7.082;2023-07-20T02:39:18;2.60;;;2.40;;
5085;SDS011;4715;51.660;7.082;2023-07-20T02:41:39;2.70;;;2.50;;
5085;SDS011;4715;51.660;7.082;2023-07-20T02:44:02;2.43;;;2.33;;
5085;SDS011;4715;51.660;7.082;2023-07-20T02:46:24;2.40;;;2.30;;
5085;SDS011;4715;51.660;7.082;2023-07-20T02:48:46;2.23;;;2.13;;
5085;SDS011;4715;51.660;7.082;2023-07-20T02:51:08;2.60;;;2.40;;
5085;SDS011;4715;51.660;7.082;2023-07-20T02:53:30;2.30;;;2.20;;
5085;SDS011;4715;51.660;7.082;2023-07-20T02:55:53;3.00;;;2.80;;
5085;SDS011;4715;51.660;7.082;2023-07-20T02:58:15;2.70;;;2.37;;
5085;SDS011;4715;51.660;7.082;2023-07-20T03:00:36;5.23;;;2.70;;
5085;SDS011;4715;51.660;7.082;2023-07-20T03:02:58;3.37;;;2.93;;
5085;SDS011;4715;51.660;7.082;2023-07-20T03:05:20;4.80;;;3.30;;
5085;SDS011;4715;51.660;7.082;2023-07-20T03:07:42;4.03;;;3.80;;
5085;SDS011;4715;51.660;7.082;2023-07-20T03:10:05;3.60;;;3.30;;
5085;SDS011;4715;51.660;7.082;2023-07-20T03:12:30;4.80;;;4.43;;
5085;SDS011;4715;51.660;7.082;2023-07-20T03:14:54;4.80;;;4.40;;
5085;SDS011;4715;51.660;7.082;2023-07-20T03:17:17;4.10;;;3.80;;
5085;SDS011;4715;51.660;7.082;2023-07-20T03:19:40;3.63;;;3.43;;
5085;SDS011;4715;51.660;7.082;2023-07-20T03:22:03;3.27;;;3.07;;
5085;SDS011;4715;51.660;7.082;2023-07-20T03:24:25;3.67;;;3.37;;
5085;SDS011;4715;51.660;7.082;2023-07-20T03:26:47;3.60;;;3.30;;
5085;SDS011;4715;51.660;7.082;2023-07-20T03:29:10;3.63;;;3.33;;
5085;SDS011;4715;51.660;7.082;2023-07-20T03:31:32;3.63;;;3.40;;
5085;SDS011;4715;51.660;7.082;2023-07-20T03:33:53;2.97;;;2.77;;
5085;SDS011;4715;51.660;7.082;2023-07-20T03:36:15;3.77;;;3.57;;
5085;SDS011;4715;51.660;7.082;2023-07-20T03:38:37;2.80;;;2.60;;
5085;SDS011;4715;51.660;7.082;2023-07-20T03:40:59;3.07;;;2.87;;
5085;SDS011;4715;51.660;7.082;2023-07-20T03:43:21;4.37;;;3.30;;
5085;SDS011;4715;51.660;7.082;2023-07-20T03:45:45;3.50;;;3.30;;
5085;SDS011;4715;51.660;7.082;2023-07-20T03:48:07;3.83;;;3.53;;
5085;SDS011;4715;51.660;7.082;2023-07-20T03:50:29;3.50;;;3.30;;
5085;SDS011;4715;51.660;7.082;2023-07-20T03:52:51;3.80;;;3.50;;
5085;SDS011;4715;51.660;7.082;2023-07-20T03:55:13;3.93;;;3.63;;
5085;SDS011;4715;51.660;7.082;2023-07-20T03:57:35;3.43;;;3.23;;
5085;SDS011;4715;51.660;7.082;2023-07-20T03:59:57;4.03;;;3.60;;
5085;SDS011;4715;51.660;7.082;2023-07-20T04:02:20;4.13;;;3.83;;
5085;SDS011;4715;51.660;7.082;2023-07-20T04:04:42;3.50;;;3.30;;
5085;SDS011;4715;51.660;7.082;2023-07-20T04:07:04;3.40;;;3.20;;
5085;SDS011;4715;51.660;7.082;2023-07-20T04:09:27;2.93;;;2.80;;
5085;SDS011;4715;51.660;7.082;2023-07-20T04:11:49;3.40;;;3.20;;
5085;SDS011;4715;51.660;7.082;2023-07-20T04:14:11;3.23;;;3.03;;
5085;SDS011;4715;51.660;7.082;2023-07-20T04:16:32;2.83;;;2.73;;
5085;SDS011;4715;51.660;7.082;2023-07-20T04:18:56;2.50;;;2.40;;
5085;SDS011;4715;51.660;7.082;2023-07-20T04:21:18;2.70;;;2.60;;
5085;SDS011;4715;51.660;7.082;2023-07-20T04:23:40;3.43;;;3.13;;
5085;SDS011;4715;51.660;7.082;2023-07-20T04:26:02;2.27;;;2.17;;
5085;SDS011;4715;51.660;7.082;2023-07-20T04:28:23;1.90;;;1.80;;
5085;SDS011;4715;51.660;7.082;2023-07-20T04:30:48;4.83;;;3.73;;
5085;SDS011;4715;51.660;7.082;2023-07-20T04:33:11;2.90;;;2.70;;
5085;SDS011;4715;51.660;7.082;2023-07-20T04:35:47;2.47;;;2.33;;
5085;SDS011;4715;51.660;7.082;2023-07-20T04:38:10;2.33;;;2.23;;
5085;SDS011;4715;51.660;7.082;2023-07-20T04:40:32;3.10;;;2.97;;
5085;SDS011;4715;51.660;7.082;2023-07-20T04:42:53;2.30;;;2.20;;
5085;SDS011;4715;51.660;7.082;2023-07-20T04:45:15;2.80;;;2.70;;
5085;SDS011;4715;51.660;7.082;2023-07-20T04:47:39;2.00;;;1.90;;
5085;SDS011;4715;51.660;7.082;2023-07-20T04:50:00;2.37;;;2.10;;
5085;SDS011;4715;51.660;7.082;2023-07-20T04:52:24;2.00;;;1.90;;
5085;SDS011;4715;51.660;7.082;2023-07-20T04:54:50;1.87;;;1.77;;
5085;SDS011;4715;51.660;7.082;2023-07-20T04:57:11;2.10;;;2.00;;
5085;SDS011;4715;51.660;7.082;2023-07-20T04:59:35;2.03;;;1.93;;
5085;SDS011;4715;51.660;7.082;2023-07-20T05:01:57;2.50;;;2.40;;
5085;SDS011;4715;51.660;7.082;2023-07-20T05:04:18;2.43;;;2.33;;
5085;SDS011;4715;51.660;7.082;2023-07-20T05:06:40;2.13;;;2.03;;
5085;SDS011;4715;51.660;7.082;2023-07-20T05:09:03;1.97;;;1.87;;
5085;SDS011;4715;51.660;7.082;2023-07-20T05:11:27;2.30;;;2.20;;
5085;SDS011;4715;51.660;7.082;2023-07-20T05:13:49;2.40;;;2.30;;
5085;SDS011;4715;51.660;7.082;2023-07-20T05:16:11;2.20;;;2.10;;
5085;SDS011;4715;51.660;7.082;2023-07-20T05:18:33;2.80;;;2.70;;
5085;SDS011;4715;51.660;7.082;2023-07-20T05:20:54;1.97;;;1.87;;
5085;SDS011;4715;51.660;7.082;2023-07-20T05:23:17;2.33;;;2.23;;
5085;SDS011;4715;51.660;7.082;2023-07-20T05:25:41;2.30;;;2.20;;
5085;SDS011;4715;51.660;7.082;2023-07-20T05:28:03;2.90;;;2.70;;
5085;SDS011;4715;51.660;7.082;2023-07-20T05:30:25;2.00;;;1.90;;
5085;SDS011;4715;51.660;7.082;2023-07-20T05:32:47;2.80;;;2.60;;
5085;SDS011;4715;51.660;7.082;2023-07-20T05:35:11;2.40;;;2.30;;
5085;SDS011;4715;51.660;7.082;2023-07-20T05:37:32;2.70;;;2.60;;
5085;SDS011;4715;51.660;7.082;2023-07-20T05:39:54;2.53;;;2.33;;
5085;SDS011;4715;51.660;7.082;2023-07-20T05:42:17;2.30;;;2.13;;
5085;SDS011;4715;51.660;7.082;2023-07-20T05:44:39;2.50;;;2.30;;
5085;SDS011;4715;51.660;7.082;2023-07-20T05:47:01;1.57;;;1.50;;
5085;SDS011;4715;51.660;7.082;2023-07-20T05:49:23;2.07;;;1.87;;
5085;SDS011;4715;51.660;7.082;2023-07-20T05:51:45;2.30;;;2.20;;
5085;SDS011;4715;51.660;7.082;2023-07-20T05:54:07;2.70;;;1.80;;
5085;SDS011;4715;51.660;7.082;2023-07-20T05:56:29;1.47;;;1.37;;
5085;SDS011;4715;51.660;7.082;2023-07-20T05:58:53;3.13;;;1.90;;
5085;SDS011;4715;51.660;7.082;2023-07-20T06:01:15;2.17;;;1.73;;
5085;SDS011;4715;51.660;7.082;2023-07-20T06:03:38;2.10;;;2.00;;
5085;SDS011;4715;51.660;7.082;2023-07-20T06:06:00;2.00;;;1.90;;
5085;SDS011;4715;51.660;7.082;2023-07-20T06:08:22;1.60;;;1.50;;
5085;SDS011;4715;51.660;7.082;2023-07-20T06:10:44;2.20;;;2.10;;
5085;SDS011;4715;51.660;7.082;2023-07-20T06:13:11;2.90;;;2.70;;
5085;SDS011;4715;51.660;7.082;2023-07-20T06:15:35;1.90;;;1.80;;
5085;SDS011;4715;51.660;7.082;2023-07-20T06:17:59;2.30;;;2.13;;
5085;SDS011;4715;51.660;7.082;2023-07-20T06:20:21;2.00;;;1.90;;
5085;SDS011;4715;51.660;7.082;2023-07-20T06:22:44;2.30;;;2.20;;
5085;SDS011;4715;51.660;7.082;2023-07-20T06:25:06;2.20;;;2.10;;
5085;SDS011;4715;51.660;7.082;2023-07-20T06:27:28;2.60;;;2.50;;
5085;SDS011;4715;51.660;7.082;2023-07-20T06:29:52;2.00;;;1.90;;
5085;SDS011;4715;51.660;7.082;2023-07-20T06:32:15;2.00;;;1.90;;
5085;SDS011;4715;51.660;7.082;2023-07-20T06:34:38;2.40;;;2.30;;
5085;SDS011;4715;51.660;7.082;2023-07-20T06:37:00;2.47;;;2.27;;
5085;SDS011;4715;51.660;7.082;2023-07-20T06:39:23;2.50;;;2.30;;
5085;SDS011;4715;51.660;7.082;2023-07-20T06:41:44;1.90;;;1.80;;
5085;SDS011;4715;51.660;7.082;2023-07-20T06:44:06;2.80;;;2.10;;
5085;SDS011;4715;51.660;7.082;2023-07-20T06:46:28;2.23;;;2.13;;
5085;SDS011;4715;51.660;7.082;2023-07-20T06:48:51;1.70;;;1.60;;
5085;SDS011;4715;51.660;7.082;2023-07-20T06:51:14;2.10;;;2.00;;
5085;SDS011;4715;51.660;7.082;2023-07-20T06:53:36;2.50;;;2.40;;
5085;SDS011;4715;51.660;7.082;2023-07-20T06:55:58;1.67;;;1.57;;
5085;SDS011;4715;51.660;7.082;2023-07-20T06:58:20;1.90;;;1.80;;
5085;SDS011;4715;51.660;7.082;2023-07-20T07:00:42;1.40;;;1.40;;
5085;SDS011;4715;51.660;7.082;2023-07-20T07:03:04;1.90;;;1.80;;
5085;SDS011;4715;51.660;7.082;2023-07-20T07:05:28;1.70;;;1.60;;
5085;SDS011;4715;51.660;7.082;2023-07-20T07:07:53;1.60;;;1.50;;
5085;SDS011;4715;51.660;7.082;2023-07-20T07:10:15;1.87;;;1.50;;
5085;SDS011;4715;51.660;7.082;2023-07-20T07:12:38;1.13;;;1.13;;
5085;SDS011;4715;51.660;7.082;2023-07-20T07:15:00;1.23;;;1.23;;
5085;SDS011;4715;51.660;7.082;2023-07-20T07:17:22;1.37;;;1.33;;
5085;SDS011;4715;51.660;7.082;2023-07-20T07:19:44;1.27;;;1.17;;
5085;SDS011;4715;51.660;7.082;2023-07-20T07:22:07;1.30;;;1.20;;
5085;SDS011;4715;51.660;7.082;2023-07-20T07:24:29;1.10;;;1.10;;
5085;SDS011;4715;51.660;7.082;2023-07-20T07:26:53;1.00;;;1.00;;
5085;SDS011;4715;51.660;7.082;2023-07-20T07:29:15;1.50;;;1.40;;
5085;SDS011;4715;51.660;7.082;2023-07-20T07:31:37;1.07;;;1.07;;
5085;SDS011;4715;51.660;7.082;2023-07-20T07:33:59;1.00;;;1.00;;
5085;SDS011;4715;51.660;7.082;2023-07-20T07:36:21;1.00;;;1.00;;
5085;SDS011;4715;51.660;7.082;2023-07-20T07:38:45;1.80;;;1.30;;
5085;SDS011;4715;51.660;7.082;2023-07-20T07:41:07;1.37;;;1.27;;
5085;SDS011;4715;51.660;7.082;2023-07-20T07:43:29;1.00;;;1.00;;
5085;SDS011;4715;51.660;7.082;2023-07-20T07:45:53;1.00;;;1.00;;
5085;SDS011;4715;51.660;7.082;2023-07-20T07:48:15;1.00;;;1.00;;
5085;SDS011;4715;51.660;7.082;2023-07-20T07:50:37;0.90;;;0.90;;
5085;SDS011;4715;51.660;7.082;2023-07-20T07:53:01;0.90;;;0.90;;
5085;SDS011;4715;51.660;7.082;2023-07-20T07:55:25;1.07;;;1.07;;
5085;SDS011;4715;51.660;7.082;2023-07-20T07:57:48;1.10;;;1.10;;
5085;SDS011;4715;51.660;7.082;2023-07-20T08:00:10;0.97;;;0.97;;
5085;SDS011;4715;51.660;7.082;2023-07-20T08:02:34;1.23;;;1.23;;
5085;SDS011;4715;51.660;7.082;2023-07-20T08:04:56;1.00;;;1.00;;
5085;SDS011;4715;51.660;7.082;2023-07-20T08:07:18;1.20;;;1.20;;
5085;SDS011;4715;51.660;7.082;2023-07-20T08:09:41;1.10;;;1.10;;
5085;SDS011;4715;51.660;7.082;2023-07-20T08:12:14;1.43;;;1.33;;
5085;SDS011;4715;51.660;7.082;2023-07-20T08:14:40;1.40;;;1.30;;
5085;SDS011;4715;51.660;7.082;2023-07-20T08:17:02;1.07;;;1.03;;
5085;SDS011;4715;51.660;7.082;2023-07-20T08:19:25;1.20;;;1.20;;
5085;SDS011;4715;51.660;7.082;2023-07-20T08:21:46;1.00;;;0.90;;
5085;SDS011;4715;51.660;7.082;2023-07-20T08:24:08;1.20;;;1.10;;
5085;SDS011;4715;51.660;7.082;2023-07-20T08:26:30;1.00;;;1.00;;
5085;SDS011;4715;51.660;7.082;2023-07-20T08:28:54;1.57;;;1.50;;
5085;SDS011;4715;51.660;7.082;2023-07-20T08:31:16;1.10;;;1.10;;
5085;SDS011;4715;51.660;7.082;2023-07-20T08:33:38;0.90;;;0.90;;
5085;SDS011;4715;51.660;7.082;2023-07-20T08:36:00;1.10;;;1.10;;
5085;SDS011;4715;51.660;7.082;2023-07-20T08:38:23;1.27;;;1.27;;
5085;SDS011;4715;51.660;7.082;2023-07-20T08:40:45;1.70;;;1.00;;
5085;SDS011;4715;51.660;7.082;2023-07-20T08:43:09;1.20;;;1.10;;
5085;SDS011;4715;51.660;7.082;2023-07-20T08:45:34;1.23;;;1.23;;
5085;SDS011;4715;51.660;7.082;2023-07-20T08:47:59;1.20;;;1.20;;
5085;SDS011;4715;51.660;7.082;2023-07-20T08:50:23;1.10;;;1.10;;
5085;SDS011;4715;51.660;7.082;2023-07-20T08:52:47;2.60;;;1.37;;
5085;SDS011;4715;51.660;7.082;2023-07-20T08:55:12;1.70;;;1.60;;
5085;SDS011;4715;51.660;7.082;2023-07-20T08:57:35;1.47;;;1.10;;
5085;SDS011;4715;51.660;7.082;2023-07-20T09:00:01;1.10;;;1.10;;
5085;SDS011;4715;51.660;7.082;2023-07-20T09:02:28;1.30;;;1.10;;
5085;SDS011;4715;51.660;7.082;2023-07-20T09:04:50;1.30;;;1.20;;
5085;SDS011;4715;51.660;7.082;2023-07-20T09:07:12;1.23;;;1.23;;
5085;SDS011;4715;51.660;7.082;2023-07-20T09:09:39;1.20;;;1.10;;
5085;SDS011;4715;51.660;7.082;2023-07-20T09:12:01;1.13;;;1.13;;
5085;SDS011;4715;51.660;7.082;2023-07-20T09:14:23;0.93;;;0.93;;
5085;SDS011;4715;51.660;7.082;2023-07-20T09:16:48;1.20;;;1.20;;
5085;SDS011;4715;51.660;7.082;2023-07-20T09:19:12;1.30;;;1.13;;
5085;SDS011;4715;51.660;7.082;2023-07-20T09:21:36;1.10;;;1.10;;
5085;SDS011;4715;51.660;7.082;2023-07-20T09:23:58;1.33;;;1.30;;
5085;SDS011;4715;51.660;7.082;2023-07-20T09:26:19;1.03;;;1.03;;
5085;SDS011;4715;51.660;7.082;2023-07-20T09:28:42;1.00;;;1.00;;
5085;SDS011;4715;51.660;7.082;2023-07-20T09:31:08;1.03;;;0.93;;
5085;SDS011;4715;51.660;7.082;2023-07-20T09:33:39;1.00;;;1.00;;
5085;SDS011;4715;51.660;7.082;2023-07-20T09:36:05;2.20;;;1.00;;
5085;SDS011;4715;51.660;7.082;2023-07-20T09:38:32;1.27;;;1.10;;
5085;SDS011;4715;51.660;7.082;2023-07-20T09:40:56;1.20;;;0.80;;
5085;SDS011;4715;51.660;7.082;2023-07-20T09:43:20;0.90;;;0.90;;
5085;SDS011;4715;51.660;7.082;2023-07-20T09:45:42;0.90;;;0.90;;
5085;SDS011;4715;51.660;7.082;2023-07-20T09:48:04;0.90;;;0.90;;
5085;SDS011;4715;51.660;7.082;2023-07-20T09:50:27;0.90;;;0.90;;
5085;SDS011;4715;51.660;7.082;2023-07-20T09:52:50;1.47;;;0.97;;
5085;SDS011;4715;51.660;7.082;2023-07-20T09:55:15;0.93;;;0.93;;
5085;SDS011;4715;51.660;7.082;2023-07-20T09:57:38;0.90;;;0.90;;
5085;SDS011;4715;51.660;7.082;2023-07-20T10:00:00;1.10;;;1.00;;
5085;SDS011;4715;51.660;7.082;2023-07-20T10:02:25;1.40;;;1.00;;
5085;SDS011;4715;51.660;7.082;2023-07-20T10:04:51;0.90;;;0.90;;
5085;SDS011;4715;51.660;7.082;2023-07-20T10:07:17;1.37;;;0.90;;
5085;SDS011;4715;51.660;7.082;2023-07-20T10:09:45;0.93;;;0.93;;
5085;SDS011;4715;51.660;7.082;2023-07-20T10:12:08;0.90;;;0.90;;
5085;SDS011;4715;51.660;7.082;2023-07-20T10:14:31;1.20;;;1.20;;
5085;SDS011;4715;51.660;7.082;2023-07-20T10:17:03;1.00;;;0.93;;
5085;SDS011;4715;51.660;7.082;2023-07-20T10:19:27;0.90;;;0.90;;
5085;SDS011;4715;51.660;7.082;2023-07-20T10:21:56;0.70;;;0.70;;
5085;SDS011;4715;51.660;7.082;2023-07-20T10:24:22;0.70;;;0.70;;
5085;SDS011;4715;51.660;7.082;2023-07-20T10:26:46;0.93;;;0.93;;
5085;SDS011;4715;51.660;7.082;2023-07-20T10:29:08;0.70;;;0.70;;
5085;SDS011;4715;51.660;7.082;2023-07-20T10:31:31;0.80;;;0.80;;
5085;SDS011;4715;51.660;7.082;2023-07-20T10:33:54;0.70;;;0.70;;
5085;SDS011;4715;51.660;7.082;2023-07-20T10:36:17;0.83;;;0.83;;
5085;SDS011;4715;51.660;7.082;2023-07-20T10:38:51;0.90;;;0.90;;
5085;SDS011;4715;51.660;7.082;2023-07-20T10:41:18;0.90;;;0.90;;
5085;SDS011;4715;51.660;7.082;2023-07-20T10:43:43;2.60;;;1.00;;
5085;SDS011;4715;51.660;7.082;2023-07-20T10:46:05;0.70;;;0.70;;
5085;SDS011;4715;51.660;7.082;2023-07-20T10:48:27;0.70;;;0.70;;
5085;SDS011;4715;51.660;7.082;2023-07-20T10:53:52;1.17;;;0.80;;
5085;SDS011;4715;51.660;7.082;2023-07-20T10:56:19;0.70;;;0.70;;
5085;SDS011;4715;51.660;7.082;2023-07-20T10:58:43;0.80;;;0.80;;
5085;SDS011;4715;51.660;7.082;2023-07-20T11:01:06;0.80;;;0.80;;
5085;SDS011;4715;51.660;7.082;2023-07-20T11:03:29;0.80;;;0.80;;
5085;SDS011;4715;51.660;7.082;2023-07-20T11:05:52;0.80;;;0.80;;
5085;SDS011;4715;51.660;7.082;2023-07-20T11:08:37;0.70;;;0.70;;
5085;SDS011;4715;51.660;7.082;2023-07-20T11:13:56;0.80;;;0.80;;
5085;SDS011;4715;51.660;7.082;2023-07-20T11:16:19;1.03;;;1.00;;
5085;SDS011;4715;51.660;7.082;2023-07-20T11:18:56;0.80;;;0.80;;
5085;SDS011;4715;51.660;7.082;2023-07-20T11:21:19;0.90;;;0.90;;
5085;SDS011;4715;51.660;7.082;2023-07-20T11:23:42;0.80;;;0.80;;
5085;SDS011;4715;51.660;7.082;2023-07-20T11:26:05;0.80;;;0.80;;
5085;SDS011;4715;51.660;7.082;2023-07-20T11:28:29;0.70;;;0.70;;
5085;SDS011;4715;51.660;7.082;2023-07-20T11:30:54;2.03;;;0.90;;
5085;SDS011;4715;51.660;7.082;2023-07-20T11:33:16;0.80;;;0.80;;
5085;SDS011;4715;51.660;7.082;2023-07-20T11:35:41;0.80;;;0.80;;
5085;SDS011;4715;51.660;7.082;2023-07-20T11:38:04;0.70;;;0.70;;
5085;SDS011;4715;51.660;7.082;2023-07-20T11:40:27;0.80;;;0.80;;
5085;SDS011;4715;51.660;7.082;2023-07-20T11:42:49;1.13;;;1.03;;
5085;SDS011;4715;51.660;7.082;2023-07-20T11:45:12;0.80;;;0.80;;
5085;SDS011;4715;51.660;7.082;2023-07-20T11:47:35;0.83;;;0.83;;
5085;SDS011;4715;51.660;7.082;2023-07-20T11:50:02;0.80;;;0.80;;
5085;SDS011;4715;51.660;7.082;2023-07-20T11:52:24;0.90;;;0.90;;
5085;SDS011;4715;51.660;7.082;2023-07-20T11:54:48;0.70;;;0.70;;
5085;SDS011;4715;51.660;7.082;2023-07-20T11:57:15;0.80;;;0.80;;
5085;SDS011;4715;51.660;7.082;2023-07-20T11:59:37;0.80;;;0.80;;
5085;SDS011;4715;51.660;7.082;2023-07-20T12:02:13;0.80;;;0.80;;
5085;SDS011;4715;51.660;7.082;2023-07-20T12:04:36;0.93;;;0.93;;
5085;SDS011;4715;51.660;7.082;2023-07-20T12:06:58;1.00;;;0.80;;
5085;SDS011;4715;51.660;7.082;2023-07-20T12:09:20;0.70;;;0.70;;
5085;SDS011;4715;51.660;7.082;2023-07-20T12:11:43;0.70;;;0.70;;
5085;SDS011;4715;51.660;7.082;2023-07-20T12:14:06;0.90;;;0.90;;
5085;SDS011;4715;51.660;7.082;2023-07-20T12:16:35;1.00;;;1.00;;
5085;SDS011;4715;51.660;7.082;2023-07-20T12:18:59;0.80;;;0.80;;
5085;SDS011;4715;51.660;7.082;2023-07-20T12:21:23;0.80;;;0.70;;
5085;SDS011;4715;51.660;7.082;2023-07-20T12:23:45;1.10;;;0.80;;
5085;SDS011;4715;51.660;7.082;2023-07-20T12:26:08;1.13;;;1.10;;
5085;SDS011;4715;51.660;7.082;2023-07-20T12:28:33;0.90;;;0.90;;
5085;SDS011;4715;51.660;7.082;2023-07-20T12:30:56;0.80;;;0.80;;
5085;SDS011;4715;51.660;7.082;2023-07-20T12:33:18;0.93;;;0.90;;
5085;SDS011;4715;51.660;7.082;2023-07-20T12:35:41;1.00;;;1.00;;
5085;SDS011;4715;51.660;7.082;2023-07-20T12:38:07;0.77;;;0.77;;
5085;SDS011;4715;51.660;7.082;2023-07-20T12:40:29;0.70;;;0.70;;
5085;SDS011;4715;51.660;7.082;2023-07-20T12:42:51;1.67;;;0.90;;
5085;SDS011;4715;51.660;7.082;2023-07-20T12:45:14;0.97;;;0.90;;
5085;SDS011;4715;51.660;7.082;2023-07-20T12:47:36;0.80;;;0.80;;
5085;SDS011;4715;51.660;7.082;2023-07-20T12:49:58;0.70;;;0.70;;
5085;SDS011;4715;51.660;7.082;2023-07-20T12:52:21;0.83;;;0.70;;
5085;SDS011;4715;51.660;7.082;2023-07-20T12:54:51;0.80;;;0.80;;
5085;SDS011;4715;51.660;7.082;2023-07-20T12:57:14;0.90;;;0.90;;
5085;SDS011;4715;51.660;7.082;2023-07-20T12:59:36;1.00;;;0.90;;
5085;SDS011;4715;51.660;7.082;2023-07-20T13:01:57;0.87;;;0.87;;
5085;SDS011;4715;51.660;7.082;2023-07-20T13:04:19;0.90;;;0.90;;
5085;SDS011;4715;51.660;7.082;2023-07-20T13:06:41;0.80;;;0.80;;
5085;SDS011;4715;51.660;7.082;2023-07-20T13:09:03;0.80;;;0.80;;
5085;SDS011;4715;51.660;7.082;2023-07-20T13:11:26;0.80;;;0.80;;
5085;SDS011;4715;51.660;7.082;2023-07-20T13:13:48;1.80;;;0.80;;
5085;SDS011;4715;51.660;7.082;2023-07-20T13:16:12;0.80;;;0.80;;
5085;SDS011;4715;51.660;7.082;2023-07-20T13:18:35;0.80;;;0.80;;
5085;SDS011;4715;51.660;7.082;2023-07-20T13:20:58;1.20;;;1.00;;
5085;SDS011;4715;51.660;7.082;2023-07-20T13:23:20;0.70;;;0.70;;
5085;SDS011;4715;51.660;7.082;2023-07-20T13:25:42;4.20;;;1.10;;
5085;SDS011;4715;51.660;7.082;2023-07-20T13:28:05;1.83;;;0.80;;
5085;SDS011;4715;51.660;7.082;2023-07-20T13:30:28;0.90;;;0.90;;
5085;SDS011;4715;51.660;7.082;2023-07-20T13:32:50;0.80;;;0.80;;
5085;SDS011;4715;51.660;7.082;2023-07-20T13:35:12;0.80;;;0.80;;
5085;SDS011;4715;51.660;7.082;2023-07-20T13:37:34;0.73;;;0.73;;
5085;SDS011;4715;51.660;7.082;2023-07-20T13:39:56;0.83;;;0.83;;
5085;SDS011;4715;51.660;7.082;2023-07-20T13:42:17;0.97;;;0.87;;
5085;SDS011;4715;51.660;7.082;2023-07-20T13:44:42;1.40;;;0.97;;
5085;SDS011;4715;51.660;7.082;2023-07-20T13:47:04;1.00;;;0.90;;
5085;SDS011;4715;51.660;7.082;2023-07-20T13:49:29;0.93;;;0.93;;
5085;SDS011;4715;51.660;7.082;2023-07-20T13:51:51;0.80;;;0.80;;
5085;SDS011;4715;51.660;7.082;2023-07-20T13:54:15;0.80;;;0.80;;
5085;SDS011;4715;51.660;7.082;2023-07-20T13:56:37;0.70;;;0.70;;
5085;SDS011;4715;51.660;7.082;2023-07-20T13:58:59;0.80;;;0.80;;
5085;SDS011;4715;51.660;7.082;2023-07-20T14:01:26;0.77;;;0.77;;
5085;SDS011;4715;51.660;7.082;2023-07-20T14:03:51;0.70;;;0.70;;
5085;SDS011;4715;51.660;7.082;2023-07-20T14:06:14;1.87;;;0.90;;
5085;SDS011;4715;51.660;7.082;2023-07-20T14:08:36;0.70;;;0.70;;
5085;SDS011;4715;51.660;7.082;2023-07-20T14:10:58;0.90;;;0.90;;
5085;SDS011;4715;51.660;7.082;2023-07-20T14:13:20;0.83;;;0.83;;
5085;SDS011;4715;51.660;7.082;2023-07-20T14:15:41;0.70;;;0.70;;
5085;SDS011;4715;51.660;7.082;2023-07-20T14:18:05;1.13;;;0.87;;
5085;SDS011;4715;51.660;7.082;2023-07-20T14:20:27;0.80;;;0.80;;
5085;SDS011;4715;51.660;7.082;2023-07-20T14:22:48;1.00;;;1.00;;
5085;SDS011;4715;51.660;7.082;2023-07-20T14:25:10;0.97;;;0.97;;
5085;SDS011;4715;51.660;7.082;2023-07-20T14:27:32;1.40;;;1.30;;
5085;SDS011;4715;51.660;7.082;2023-07-20T14:29:54;1.10;;;1.10;;
5085;SDS011;4715;51.660;7.082;2023-07-20T14:32:16;1.00;;;1.00;;
5085;SDS011;4715;51.660;7.082;2023-07-20T14:34:39;1.30;;;1.20;;
5085;SDS011;4715;51.660;7.082;2023-07-20T14:37:01;1.47;;;1.00;;
5085;SDS011;4715;51.660;7.082;2023-07-20T14:39:24;0.97;;;0.97;;
5085;SDS011;4715;51.660;7.082;2023-07-20T14:41:46;0.83;;;0.83;;
5085;SDS011;4715;51.660;7.082;2023-07-20T14:44:09;1.10;;;1.10;;
5085;SDS011;4715;51.660;7.082;2023-07-20T14:46:31;1.00;;;1.00;;
5085;SDS011;4715;51.660;7.082;2023-07-20T14:48:53;0.80;;;0.80;;
5085;SDS011;4715;51.660;7.082;2023-07-20T14:51:16;0.70;;;0.70;;
5085;SDS011;4715;51.660;7.082;2023-07-20T14:53:38;1.00;;;0.80;;
5085;SDS011;4715;51.660;7.082;2023-07-20T14:56:00;0.97;;;0.97;;
5085;SDS011;4715;51.660;7.082;2023-07-20T14:58:23;0.80;;;0.80;;